createdAt,value
2023-02-25T00:01:15.843Z,37.20
2023-02-25T00:03:44.078Z,38.10
2023-02-25T00:06:15.281Z,38.10
2023-02-25T00:08:46.226Z,37.47
2023-02-25T00:11:14.533Z,36.58
2023-02-25T00:13:42.217Z,38.45
2023-02-25T00:16:10.323Z,36.63
2023-02-25T00:18:37.110Z,35.70
2023-02-25T00:21:09.459Z,36.88
2023-02-25T00:23:36.655Z,37.17
2023-02-25T00:26:06.739Z,37.47
2023-02-25T00:28:34.402Z,36.22
2023-02-25T00:31:05.705Z,36.97
2023-02-25T00:33:32.538Z,37.80
2023-02-25T00:35:59.261Z,38.78
2023-02-25T00:38:27.643Z,38.53
2023-02-25T00:40:54.346Z,36.70
2023-02-25T00:43:20.982Z,39.47
2023-02-25T00:45:47.967Z,37.38
2023-02-25T00:48:14.673Z,39.78
2023-02-25T00:50:41.379Z,39.67
2023-02-25T00:53:08.066Z,39.17
2023-02-25T00:55:34.852Z,38.25
2023-02-25T00:58:02.013Z,37.42
2023-02-25T01:00:31.461Z,39.75
2023-02-25T01:03:00.944Z,37.75
2023-02-25T01:05:27.697Z,36.67
2023-02-25T01:07:54.733Z,35.85
2023-02-25T01:10:21.591Z,37.15
2023-02-25T01:12:48.296Z,37.53
2023-02-25T01:15:15.177Z,36.28
2023-02-25T01:17:41.981Z,36.88
2023-02-25T01:20:12.699Z,37.63
2023-02-25T01:22:41.934Z,39.72
2023-02-25T01:25:13.198Z,40.20
2023-02-25T01:27:40.258Z,38.83
2023-02-25T01:30:08.316Z,40.45
2023-02-25T01:32:35.497Z,37.70
2023-02-25T01:35:02.434Z,38.35
2023-02-25T01:37:29.280Z,39.58
2023-02-25T01:39:56.116Z,36.65
2023-02-25T01:42:24.079Z,37.55
2023-02-25T01:45:19.171Z,39.47
2023-02-25T01:47:51.174Z,35.45
2023-02-25T01:50:19.961Z,36.72
2023-02-25T01:52:47.256Z,35.95
2023-02-25T01:55:14.293Z,37.83
2023-02-25T01:57:41.030Z,38.00
2023-02-25T02:00:12.599Z,39.88
2023-02-25T02:02:39.459Z,38.50
2023-02-25T02:05:07.395Z,37.78
2023-02-25T02:07:34.339Z,38.78
2023-02-25T02:10:02.273Z,38.13
2023-02-25T02:12:40.397Z,36.17
2023-02-25T02:15:11.527Z,37.83
2023-02-25T02:17:52.144Z,37.28
2023-02-25T02:20:30.537Z,36.55
2023-02-25T02:23:09.191Z,37.33
2023-02-25T02:25:57.281Z,40.03
2023-02-25T02:28:36.029Z,37.45
2023-02-25T02:31:24.415Z,37.53
2023-02-25T02:34:02.915Z,37.00
2023-02-25T02:37:07.292Z,37.63
2023-02-25T02:39:44.995Z,38.53
2023-02-25T02:42:27.388Z,40.30
2023-02-25T02:44:57.150Z,37.13
2023-02-25T02:47:35.442Z,38.20
2023-02-25T02:50:13.863Z,37.45
2023-02-25T02:52:46.680Z,37.83
2023-02-25T02:55:24.560Z,39.03
2023-02-25T02:57:59.721Z,37.92
2023-02-25T03:00:33.583Z,37.58
2023-02-25T03:03:07.861Z,38.28
2023-02-25T03:05:37.287Z,38.28
2023-02-25T03:08:10.985Z,37.25
2023-02-25T03:10:38.229Z,36.95
2023-02-25T03:13:04.981Z,39.40
2023-02-25T03:15:33.311Z,39.00
2023-02-25T03:18:06.877Z,38.55
2023-02-25T03:20:41.703Z,38.30
2023-02-25T03:23:14.902Z,38.13
2023-02-25T03:25:49.098Z,37.95
2023-02-25T03:28:30.717Z,37.75
2023-02-25T03:31:06.466Z,39.83
2023-02-25T03:33:48.794Z,38.95
2023-02-25T03:36:42.045Z,35.58
2023-02-25T03:39:17.216Z,34.90
2023-02-25T03:41:48.144Z,32.78
2023-02-25T03:44:23.883Z,33.97
2023-02-25T03:46:51.545Z,32.65
2023-02-25T03:49:25.390Z,32.33
2023-02-25T03:51:53.378Z,32.92
2023-02-25T03:54:20.139Z,33.25
2023-02-25T03:56:49.341Z,33.70
2023-02-25T03:59:16.833Z,33.95
2023-02-25T04:01:47.281Z,35.05
2023-02-25T04:04:14.337Z,31.77
2023-02-25T04:06:41.128Z,32.67
2023-02-25T04:09:07.838Z,32.28
2023-02-25T04:11:34.693Z,32.78
2023-02-25T04:14:01.419Z,31.33
2023-02-25T04:16:28.228Z,31.30
2023-02-25T04:18:55.111Z,31.17
2023-02-25T04:21:33.450Z,30.73
2023-02-25T04:24:00.232Z,31.20
2023-02-25T04:26:27.864Z,29.83
2023-02-25T04:28:54.670Z,30.98
2023-02-25T04:31:21.929Z,29.73
2023-02-25T04:33:50.002Z,32.88
2023-02-25T04:36:32.401Z,31.25
2023-02-25T04:39:01.682Z,33.03
2023-02-25T04:41:34.004Z,31.50
2023-02-25T04:44:04.046Z,33.45
2023-02-25T04:46:31.921Z,31.85
2023-02-25T04:48:58.895Z,31.40
2023-02-25T04:51:25.655Z,31.67
2023-02-25T04:53:52.415Z,31.48
2023-02-25T04:56:19.177Z,31.30
2023-02-25T04:58:46.342Z,31.67
2023-02-25T05:01:13.836Z,31.80
2023-02-25T05:03:41.016Z,32.63
2023-02-25T05:06:08.564Z,30.23
2023-02-25T05:08:36.309Z,30.45
2023-02-25T05:11:04.088Z,30.10
2023-02-25T05:13:30.865Z,30.23
2023-02-25T05:16:24.855Z,30.02
2023-02-25T05:18:52.385Z,31.08
2023-02-25T05:21:24.727Z,33.03
2023-02-25T05:23:53.505Z,30.85
2023-02-25T05:26:23.025Z,31.85
2023-02-25T05:28:55.299Z,31.25
2023-02-25T05:31:23.500Z,32.65
2023-02-25T05:33:50.746Z,31.13
2023-02-25T05:36:17.764Z,31.05
2023-02-25T05:38:45.371Z,31.33
2023-02-25T05:41:12.897Z,31.10
2023-02-25T05:43:40.269Z,31.52
2023-02-25T05:46:11.877Z,31.15
2023-02-25T05:48:40.843Z,31.13
2023-02-25T05:51:20.128Z,31.33
2023-02-25T05:53:48.049Z,33.40
2023-02-25T05:56:17.645Z,32.10
2023-02-25T05:58:46.489Z,31.30
2023-02-25T06:01:19.130Z,30.77
2023-02-25T06:03:47.761Z,32.22
2023-02-25T06:06:16.478Z,31.67
2023-02-25T06:08:44.801Z,29.75
2023-02-25T06:11:16.965Z,31.60
2023-02-25T06:13:43.659Z,30.00
2023-02-25T06:16:10.515Z,29.15
2023-02-25T06:18:37.804Z,31.13
2023-02-25T06:21:10.111Z,31.65
2023-02-25T06:23:39.280Z,28.77
2023-02-25T06:26:07.887Z,29.27
2023-02-25T06:28:35.281Z,28.67
2023-02-25T06:31:02.268Z,28.38
2023-02-25T06:33:32.110Z,28.63
2023-02-25T06:35:59.055Z,29.27
2023-02-25T06:38:25.891Z,29.80
2023-02-25T06:40:52.661Z,31.27
2023-02-25T06:43:19.443Z,29.70
2023-02-25T06:45:46.426Z,31.25
2023-02-25T06:48:13.164Z,31.20
2023-02-25T06:50:41.046Z,31.10
2023-02-25T06:53:09.014Z,31.08
2023-02-25T06:55:38.146Z,29.90
2023-02-25T06:58:05.131Z,30.88
2023-02-25T07:00:33.231Z,31.48
2023-02-25T07:03:03.006Z,29.92
2023-02-25T07:05:29.859Z,30.52
2023-02-25T07:07:56.843Z,29.60
2023-02-25T07:10:23.648Z,29.50
2023-02-25T07:12:52.089Z,28.75
2023-02-25T07:15:20.083Z,29.52
2023-02-25T07:17:46.765Z,28.35
2023-02-25T07:20:13.665Z,29.65
2023-02-25T07:22:42.081Z,28.10
2023-02-25T07:25:14.321Z,29.02
2023-02-25T07:27:44.618Z,27.77
2023-02-25T07:30:13.156Z,26.80
2023-02-25T07:32:43.710Z,28.42
2023-02-25T07:35:10.974Z,27.10
2023-02-25T07:37:38.349Z,26.13
2023-02-25T07:40:16.927Z,25.73
2023-02-25T07:42:44.254Z,25.27
2023-02-25T07:45:12.231Z,25.95
2023-02-25T07:47:39.064Z,26.08
2023-02-25T07:50:08.007Z,25.30
2023-02-25T07:52:36.559Z,24.23
2023-02-25T07:55:06.740Z,24.83
2023-02-25T07:57:33.498Z,23.27
2023-02-25T08:00:00.293Z,23.50
2023-02-25T08:02:27.334Z,23.73
2023-02-25T08:04:54.162Z,21.27
2023-02-25T08:07:20.916Z,23.20
2023-02-25T08:09:47.885Z,22.15
2023-02-25T08:12:14.618Z,22.00
2023-02-25T08:14:41.369Z,22.83
2023-02-25T08:17:08.110Z,22.88
2023-02-25T08:19:34.830Z,22.45
2023-02-25T08:22:01.620Z,23.27
2023-02-25T08:24:28.606Z,20.90
2023-02-25T08:26:55.337Z,22.10
2023-02-25T08:29:22.418Z,21.48
2023-02-25T08:31:51.895Z,21.05
2023-02-25T08:34:19.105Z,20.27
2023-02-25T08:36:45.968Z,19.95
2023-02-25T08:39:13.081Z,21.17
2023-02-25T08:41:39.782Z,21.52
2023-02-25T08:44:06.609Z,21.55
2023-02-25T08:46:33.888Z,22.10
2023-02-25T08:49:00.909Z,20.80
2023-02-25T08:51:34.553Z,20.33
2023-02-25T08:54:06.856Z,21.58
2023-02-25T08:56:35.439Z,19.42
2023-02-25T08:59:02.876Z,19.60
2023-02-25T09:01:44.419Z,19.90
2023-02-25T09:04:16.445Z,18.85
2023-02-25T09:06:44.389Z,19.05
2023-02-25T09:09:12.593Z,18.70
2023-02-25T09:11:40.602Z,17.98
2023-02-25T09:14:07.394Z,18.95
2023-02-25T09:16:34.412Z,17.80
2023-02-25T09:19:01.337Z,21.45
2023-02-25T09:21:28.143Z,19.02
2023-02-25T09:23:55.159Z,18.20
2023-02-25T09:26:22.678Z,18.42
2023-02-25T09:28:49.662Z,19.10
2023-02-25T09:31:18.112Z,19.10
2023-02-25T09:33:45.414Z,19.70
2023-02-25T09:36:15.558Z,19.13
2023-02-25T09:38:44.105Z,19.38
2023-02-25T09:41:26.289Z,19.42
2023-02-25T09:44:02.345Z,20.35
2023-02-25T09:46:30.944Z,20.02
2023-02-25T09:49:06.978Z,18.67
2023-02-25T09:51:38.109Z,16.65
2023-02-25T09:54:18.789Z,18.65
2023-02-25T09:56:45.817Z,18.58
2023-02-25T09:59:19.054Z,19.02
2023-02-25T10:01:49.129Z,20.52
2023-02-25T10:04:41.007Z,21.08
2023-02-25T10:07:26.845Z,19.95
2023-02-25T10:10:16.207Z,19.98
2023-02-25T10:13:14.642Z,20.15
2023-02-25T10:16:07.346Z,20.80
2023-02-25T10:19:02.055Z,20.63
2023-02-25T10:21:43.534Z,20.17
2023-02-25T10:24:31.547Z,20.88
2023-02-25T10:27:20.982Z,20.17
2023-02-25T10:29:52.865Z,19.65
2023-02-25T10:32:26.349Z,20.60
2023-02-25T10:35:10.760Z,21.27
2023-02-25T10:37:38.117Z,20.15
2023-02-25T10:40:10.929Z,22.67
2023-02-25T10:42:38.343Z,21.80
2023-02-25T10:45:13.791Z,23.00
2023-02-25T10:47:44.885Z,23.25
2023-02-25T10:50:14.638Z,22.52
2023-02-25T10:53:04.444Z,23.42
2023-02-25T10:55:40.472Z,22.05
2023-02-25T10:58:40.519Z,21.98
2023-02-25T11:01:20.900Z,22.48
2023-02-25T11:03:59.133Z,22.70
2023-02-25T11:06:35.373Z,23.27
2023-02-25T11:09:05.461Z,24.25
2023-02-25T11:11:37.110Z,23.25
2023-02-25T11:14:14.702Z,23.45
2023-02-25T11:16:44.308Z,21.15
2023-02-25T11:19:16.255Z,22.35
2023-02-25T11:21:44.346Z,20.83
2023-02-25T11:24:20.337Z,20.08
2023-02-25T11:26:49.795Z,20.60
2023-02-25T11:29:23.188Z,18.95
2023-02-25T11:31:58.836Z,19.38
2023-02-25T11:34:30.794Z,19.42
2023-02-25T11:37:36.783Z,17.30
2023-02-25T11:40:19.436Z,16.70
2023-02-25T11:43:11.709Z,16.63
2023-02-25T11:45:46.691Z,17.23
2023-02-25T11:48:34.134Z,16.83
2023-02-25T11:51:19.120Z,15.82
2023-02-25T11:54:02.999Z,17.90
2023-02-25T11:56:43.854Z,17.60
2023-02-25T11:59:37.748Z,18.10
2023-02-25T12:02:25.180Z,19.02
2023-02-25T12:05:09.921Z,17.52
2023-02-25T12:08:12.552Z,15.60
2023-02-25T12:10:39.865Z,17.05
2023-02-25T12:13:25.213Z,16.77
2023-02-25T12:16:29.795Z,16.65
2023-02-25T12:19:38.880Z,13.15
2023-02-25T12:22:51.740Z,12.02
2023-02-25T12:25:37.151Z,11.23
2023-02-25T12:28:16.648Z,11.18
2023-02-25T12:31:02.730Z,11.10
2023-02-25T12:33:59.994Z,10.50
2023-02-25T12:36:48.677Z,11.18
2023-02-25T12:39:39.766Z,10.15
2023-02-25T12:42:24.508Z,9.93
2023-02-25T12:44:57.239Z,10.65
2023-02-25T12:47:27.938Z,10.38
2023-02-25T12:50:27.501Z,10.95
2023-02-25T12:53:13.944Z,9.63
2023-02-25T12:56:02.486Z,11.23
2023-02-25T12:58:57.182Z,11.02
2023-02-25T13:01:51.477Z,11.55
2023-02-25T13:04:29.968Z,10.38
2023-02-25T13:07:24.317Z,11.68
2023-02-25T13:10:19.379Z,11.77
2023-02-25T13:13:04.177Z,12.05
2023-02-25T13:15:49.649Z,12.68
2023-02-25T13:18:29.607Z,13.05
2023-02-25T13:21:20.563Z,12.25
2023-02-25T13:24:14.346Z,13.15
2023-02-25T13:27:03.305Z,12.73
2023-02-25T13:29:54.696Z,13.98
2023-02-25T13:32:42.474Z,12.38
2023-02-25T13:35:19.318Z,13.18
2023-02-25T13:38:07.473Z,13.15
2023-02-25T13:41:04.882Z,12.77
2023-02-25T13:43:52.050Z,13.32
2023-02-25T13:46:30.773Z,12.38
2023-02-25T13:49:15.997Z,13.88
2023-02-25T13:51:48.580Z,14.07
2023-02-25T13:54:46.687Z,14.35
2023-02-25T13:57:43.950Z,13.77
2023-02-25T14:00:48.285Z,12.57
2023-02-25T14:03:34.168Z,14.07
2023-02-25T14:06:21.037Z,14.73
2023-02-25T14:09:14.112Z,14.52
2023-02-25T14:12:00.488Z,12.23
2023-02-25T14:14:47.387Z,13.27
2023-02-25T14:17:34.947Z,14.35
2023-02-25T14:20:06.526Z,15.85
2023-02-25T14:22:55.679Z,13.95
2023-02-25T14:25:39.492Z,13.68
2023-02-25T14:28:21.225Z,14.18
2023-02-25T14:31:15.985Z,14.20
2023-02-25T14:34:05.817Z,14.50
2023-02-25T14:37:08.954Z,13.73
2023-02-25T14:39:57.067Z,14.10
2023-02-25T14:42:42.586Z,12.77
2023-02-25T14:45:09.292Z,11.95
2023-02-25T14:47:40.358Z,13.07
2023-02-25T14:50:30.982Z,11.55
2023-02-25T14:53:00.489Z,12.00
2023-02-25T14:55:43.028Z,11.00
2023-02-25T14:58:46.505Z,10.30
2023-02-25T15:01:32.351Z,10.40
2023-02-25T15:07:03.836Z,11.30
2023-02-25T15:10:03.805Z,10.02
2023-02-25T15:13:04.318Z,11.98
2023-02-25T15:16:03.594Z,11.18
2023-02-25T15:18:47.994Z,11.15
2023-02-25T15:21:39.869Z,7.85
2023-02-25T15:24:28.531Z,8.10
2023-02-25T15:26:56.545Z,8.00
2023-02-25T15:29:32.596Z,8.48
2023-02-25T15:32:25.611Z,7.00
2023-02-25T15:35:03.560Z,7.32
2023-02-25T15:37:33.669Z,7.00
2023-02-25T15:40:22.017Z,7.28
2023-02-25T15:42:57.081Z,7.60
2023-02-25T15:45:30.662Z,7.90
2023-02-25T15:48:17.537Z,7.82
2023-02-25T15:50:46.330Z,8.45
2023-02-25T15:53:23.300Z,9.23
2023-02-25T15:56:05.509Z,7.63
2023-02-25T15:58:32.150Z,7.38
2023-02-25T16:01:22.192Z,8.00
2023-02-25T16:03:49.257Z,8.55
2023-02-25T16:06:27.528Z,8.35
2023-02-25T16:08:57.508Z,9.00
2023-02-25T16:11:44.140Z,8.18
2023-02-25T16:14:31.249Z,9.50
2023-02-25T16:17:20.376Z,9.43
2023-02-25T16:19:51.756Z,8.75
2023-02-25T16:22:24.930Z,8.63
2023-02-25T16:24:56.905Z,9.43
2023-02-25T16:27:41.588Z,9.52
2023-02-25T16:30:33.246Z,9.88
2023-02-25T16:33:21.927Z,10.30
2023-02-25T16:35:55.429Z,9.02
2023-02-25T16:38:38.963Z,10.07
2023-02-25T16:41:05.790Z,9.15
2023-02-25T16:43:37.753Z,10.18
2023-02-25T16:46:07.269Z,10.30
2023-02-25T16:48:45.741Z,10.80
2023-02-25T16:51:23.210Z,10.85
2023-02-25T16:53:55.822Z,10.55
2023-02-25T16:56:29.066Z,10.95
2023-02-25T16:58:58.627Z,10.90
2023-02-25T17:01:29.326Z,12.77
2023-02-25T17:04:31.811Z,10.95
2023-02-25T17:07:19.456Z,11.23
2023-02-25T17:10:01.958Z,10.90
2023-02-25T17:12:45.824Z,11.60
2023-02-25T17:15:36.321Z,11.38
2023-02-25T17:18:25.255Z,10.25
2023-02-25T17:21:01.785Z,10.85
2023-02-25T17:23:29.308Z,11.38
2023-02-25T17:25:59.064Z,10.50
2023-02-25T17:28:30.827Z,10.65
2023-02-25T17:31:15.734Z,12.63
2023-02-25T17:33:49.970Z,11.20
2023-02-25T17:36:23.712Z,11.43
2023-02-25T17:38:58.531Z,12.10
2023-02-25T17:41:26.044Z,10.68
2023-02-25T17:43:53.180Z,10.80
2023-02-25T17:46:38.284Z,12.25
2023-02-25T17:49:35.728Z,11.47
2023-02-25T17:52:28.131Z,12.10
2023-02-25T17:55:02.974Z,11.75
2023-02-25T17:57:31.525Z,11.27
2023-02-25T18:00:08.958Z,11.80
2023-02-25T18:02:38.733Z,12.52
2023-02-25T18:05:25.420Z,11.25
2023-02-25T18:07:58.523Z,11.55
2023-02-25T18:10:31.375Z,12.02
2023-02-25T18:13:03.452Z,12.38
2023-02-25T18:15:35.840Z,12.27
2023-02-25T18:18:07.789Z,11.82
2023-02-25T18:20:38.211Z,12.82
2023-02-25T18:23:07.434Z,11.57
2023-02-25T18:25:47.245Z,11.82
2023-02-25T18:28:22.143Z,11.23
2023-02-25T18:30:51.089Z,11.82
2023-02-25T18:33:18.733Z,12.10
2023-02-25T18:35:48.157Z,12.30
2023-02-25T18:38:19.091Z,14.07
2023-02-25T18:40:46.937Z,13.73
2023-02-25T18:43:18.586Z,13.43
2023-02-25T18:45:45.929Z,12.55
2023-02-25T18:48:13.446Z,12.90
2023-02-25T18:50:44.338Z,13.38
2023-02-25T18:53:15.959Z,13.30
2023-02-25T18:55:42.695Z,13.77
2023-02-25T18:58:14.085Z,13.13
2023-02-25T19:00:41.781Z,13.43
2023-02-25T19:03:11.814Z,13.68
2023-02-25T19:05:38.572Z,13.25
2023-02-25T19:08:15.993Z,13.85
2023-02-25T19:10:44.004Z,13.10
2023-02-25T19:13:31.941Z,14.02
2023-02-25T19:15:58.731Z,13.30
2023-02-25T19:18:25.522Z,13.75
2023-02-25T19:20:52.281Z,13.23
2023-02-25T19:23:19.055Z,12.60
2023-02-25T19:25:48.438Z,12.70
2023-02-25T19:28:15.192Z,13.30
2023-02-25T19:30:43.860Z,13.32
2023-02-25T19:33:12.426Z,14.13
2023-02-25T19:35:41.286Z,14.88
2023-02-25T19:38:10.964Z,13.45
2023-02-25T19:40:38.298Z,13.85
2023-02-25T19:43:06.347Z,13.75
2023-02-25T19:45:33.437Z,14.15
2023-02-25T19:48:00.285Z,13.02
2023-02-25T19:50:27.740Z,12.57
2023-02-25T19:52:55.651Z,15.70
2023-02-25T19:55:22.932Z,12.93
2023-02-25T19:57:49.855Z,12.35
2023-02-25T20:00:22.700Z,12.95
2023-02-25T20:02:52.429Z,14.07
2023-02-25T20:05:19.988Z,13.65
2023-02-25T20:07:46.888Z,12.65
2023-02-25T20:10:15.359Z,13.88
2023-02-25T20:12:43.521Z,11.43
2023-02-25T20:15:11.768Z,13.70
2023-02-25T20:17:40.431Z,13.93
2023-02-25T20:20:10.994Z,13.02
2023-02-25T20:22:39.164Z,12.23
2023-02-25T20:25:07.716Z,12.95
2023-02-25T20:27:36.879Z,13.13
2023-02-25T20:30:04.610Z,13.35
2023-02-25T20:32:31.819Z,12.73
2023-02-25T20:34:58.736Z,13.93
2023-02-25T20:37:31.416Z,13.95
2023-02-25T20:39:59.405Z,14.65
2023-02-25T20:42:29.986Z,14.00
2023-02-25T20:44:58.660Z,14.73
2023-02-25T20:47:37.441Z,13.02
2023-02-25T20:50:06.178Z,13.40
2023-02-25T20:52:33.109Z,12.65
2023-02-25T20:55:00.113Z,13.95
2023-02-25T20:57:27.454Z,14.32
2023-02-25T20:59:54.768Z,12.70
2023-02-25T21:02:21.972Z,13.73
2023-02-25T21:04:49.292Z,14.35
2023-02-25T21:07:16.403Z,13.40
2023-02-25T21:09:43.550Z,14.43
2023-02-25T21:12:10.323Z,14.35
2023-02-25T21:14:37.241Z,15.10
2023-02-25T21:17:09.301Z,15.52
2023-02-25T21:19:38.687Z,16.02
2023-02-25T21:22:06.534Z,16.20
2023-02-25T21:24:33.906Z,16.55
2023-02-25T21:27:01.569Z,15.63
2023-02-25T21:29:28.515Z,15.52
2023-02-25T21:31:55.535Z,16.55
2023-02-25T21:34:22.472Z,16.27
2023-02-25T21:36:49.275Z,14.50
2023-02-25T21:39:16.133Z,16.98
2023-02-25T21:41:44.788Z,17.52
2023-02-25T21:44:12.590Z,17.40
2023-02-25T21:46:40.334Z,16.45
2023-02-25T21:49:07.313Z,16.60
2023-02-25T21:51:34.135Z,17.65
2023-02-25T21:54:01.724Z,16.80
2023-02-25T21:56:30.627Z,16.55
2023-02-25T21:59:00.501Z,17.02
2023-02-25T22:01:29.906Z,17.02
2023-02-25T22:03:57.648Z,17.42
2023-02-25T22:06:25.238Z,16.88
2023-02-25T22:08:53.193Z,16.25
2023-02-25T22:11:22.181Z,18.17
2023-02-25T22:13:50.624Z,17.45
2023-02-25T22:16:18.800Z,18.27
2023-02-25T22:18:46.516Z,17.23
2023-02-25T22:21:14.683Z,16.35
2023-02-25T22:23:45.562Z,16.50
2023-02-25T22:26:15.021Z,16.27
2023-02-25T22:28:43.038Z,17.42
2023-02-25T22:31:19.299Z,17.38
2023-02-25T22:33:46.098Z,16.45
2023-02-25T22:36:15.256Z,17.40
2023-02-25T22:38:43.445Z,17.10
2023-02-25T22:41:21.589Z,17.98
2023-02-25T22:43:48.903Z,18.05
2023-02-25T22:46:24.497Z,17.80
2023-02-25T22:48:52.042Z,18.25
2023-02-25T22:51:26.024Z,18.42
2023-02-25T22:53:53.565Z,18.38
2023-02-25T22:56:20.414Z,16.98
2023-02-25T22:58:47.432Z,17.05
2023-02-25T23:01:16.971Z,17.85
2023-02-25T23:03:43.886Z,17.52
2023-02-25T23:06:12.143Z,17.88
2023-02-25T23:08:39.435Z,18.10
2023-02-25T23:11:22.727Z,17.23
2023-02-25T23:13:52.665Z,17.80
2023-02-25T23:16:24.214Z,17.73
2023-02-25T23:18:51.905Z,18.25
2023-02-25T23:21:19.907Z,18.55
2023-02-25T23:23:51.779Z,17.75
2023-02-25T23:26:22.269Z,18.52
2023-02-25T23:28:49.556Z,18.98
2023-02-25T23:31:25.891Z,18.48
2023-02-25T23:33:57.400Z,18.02
2023-02-25T23:36:25.326Z,19.67
2023-02-25T23:38:58.088Z,18.70
2023-02-25T23:41:25.762Z,17.75
2023-02-25T23:43:54.584Z,19.90
2023-02-25T23:46:22.528Z,19.25
2023-02-25T23:48:49.573Z,18.88
2023-02-25T23:51:16.263Z,17.50
2023-02-25T23:53:42.989Z,18.60
2023-02-25T23:56:11.853Z,17.40
2023-02-25T23:58:38.861Z,18.92
